sensor_id;sensor_type;location;lat;lon;timestamp;P1;P2;P0
79117;PMS7003;68523;51.336;-0.846;2023-03-21T00:00:06;10;10;
79117;PMS7003;68523;51.336;-0.846;2023-03-21T00:05:38;21;20;
79117;PMS7003;68523;51.336;-0.846;2023-03-21T00:11:04;10;10;
79117;PMS7003;68523;51.336;-0.846;2023-03-21T00:16:04;16;15;
79117;PMS7003;68523;51.336;-0.846;2023-03-21T00:21:34;24;18;
79117;PMS7003;68523;51.336;-0.846;2023-03-21T00:26:37;17;17;
79117;PMS7003;68523;51.336;-0.846;2023-03-21T00:32:01;26;24;
79117;PMS7003;68523;51.336;-0.846;2023-03-21T00:37:04;21;16;
79117;PMS7003;68523;51.336;-0.846;2023-03-21T00:42:34;13;13;
79117;PMS7003;68523;51.336;-0.846;2023-03-21T00:47:37;18;17;
79117;PMS7003;68523;51.336;-0.846;2023-03-21T00:53:01;21;15;
79117;PMS7003;68523;51.336;-0.846;2023-03-21T00:58:04;20;20;
79117;PMS7003;68523;51.336;-0.846;2023-03-21T01:03:33;25;15;
79117;PMS7003;68523;51.336;-0.846;2023-03-21T01:08:37;16;13;
79117;PMS7003;68523;51.336;-0.846;2023-03-21T01:13:36;19;19;
79117;PMS7003;68523;51.336;-0.846;2023-03-21T01:19:01;19;13;
79117;PMS7003;68523;51.336;-0.846;2023-03-21T01:24:06;29;19;
79117;PMS7003;68523;51.336;-0.846;2023-03-21T01:29:35;16;15;
79117;PMS7003;68523;51.336;-0.846;2023-03-21T01:35:05;17;11;
79117;PMS7003;68523;51.336;-0.846;2023-03-21T01:40:35;21;12;
79117;PMS7003;68523;51.336;-0.846;2023-03-21T01:46:09;13;13;
79117;PMS7003;68523;51.336;-0.846;2023-03-21T01:51:34;22;17;
79117;PMS7003;68523;51.336;-0.846;2023-03-21T01:56:35;23;7;
79117;PMS7003;68523;51.336;-0.846;2023-03-21T02:01:35;11;11;
79117;PMS7003;68523;51.336;-0.846;2023-03-21T02:07:06;13;10;
79117;PMS7003;68523;51.336;-0.846;2023-03-21T02:12:36;17;14;
79117;PMS7003;68523;51.336;-0.846;2023-03-21T02:18:07;13;13;
79117;PMS7003;68523;51.336;-0.846;2023-03-21T02:23:38;11;11;
79117;PMS7003;68523;51.336;-0.846;2023-03-21T02:28:36;9;7;
79117;PMS7003;68523;51.336;-0.846;2023-03-21T02:39:06;9;2;
79117;PMS7003;68523;51.336;-0.846;2023-03-21T02:44:06;6;6;
79117;PMS7003;68523;51.336;-0.846;2023-03-21T02:49:38;6;6;
79117;PMS7003;68523;51.336;-0.846;2023-03-21T02:55:01;6;6;
79117;PMS7003;68523;51.336;-0.846;2023-03-21T03:00:01;2;2;
79117;PMS7003;68523;51.336;-0.846;2023-03-21T03:10:38;2;2;
79117;PMS7003;68523;51.336;-0.846;2023-03-21T03:15:38;7;7;
79117;PMS7003;68523;51.336;-0.846;2023-03-21T03:21:03;2;2;
79117;PMS7003;68523;51.336;-0.846;2023-03-21T03:26:04;5;5;
79117;PMS7003;68523;51.336;-0.846;2023-03-21T03:31:33;5;4;
79117;PMS7003;68523;51.336;-0.846;2023-03-21T03:36:36;2;2;
79117;PMS7003;68523;51.336;-0.846;2023-03-21T03:42:04;5;3;
79117;PMS7003;68523;51.336;-0.846;2023-03-21T03:47:36;3;3;
79117;PMS7003;68523;51.336;-0.846;2023-03-21T03:53:05;3;3;
79117;PMS7003;68523;51.336;-0.846;2023-03-21T03:58:35;2;2;
79117;PMS7003;68523;51.336;-0.846;2023-03-21T04:04:00;4;4;
79117;PMS7003;68523;51.336;-0.846;2023-03-21T04:09:04;2;2;
79117;PMS7003;68523;51.336;-0.846;2023-03-21T04:14:33;4;3;
79117;PMS7003;68523;51.336;-0.846;2023-03-21T04:19:36;2;2;
79117;PMS7003;68523;51.336;-0.846;2023-03-21T04:25:05;4;4;
79117;PMS7003;68523;51.336;-0.846;2023-03-21T04:30:35;6;4;
79117;PMS7003;68523;51.336;-0.846;2023-03-21T04:36:05;2;2;
79117;PMS7003;68523;51.336;-0.846;2023-03-21T04:41:35;3;3;
79117;PMS7003;68523;51.336;-0.846;2023-03-21T04:47:05;2;2;
79117;PMS7003;68523;51.336;-0.846;2023-03-21T04:52:34;3;2;
79117;PMS7003;68523;51.336;-0.846;2023-03-21T04:57:37;1;1;
79117;PMS7003;68523;51.336;-0.846;2023-03-21T05:03:02;3;1;
79117;PMS7003;68523;51.336;-0.846;2023-03-21T05:08:05;2;2;
79117;PMS7003;68523;51.336;-0.846;2023-03-21T05:13:34;1;1;
79117;PMS7003;68523;51.336;-0.846;2023-03-21T05:18:37;0;0;
79117;PMS7003;68523;51.336;-0.846;2023-03-21T05:24:01;2;2;
79117;PMS7003;68523;51.336;-0.846;2023-03-21T05:29:04;2;2;
79117;PMS7003;68523;51.336;-0.846;2023-03-21T05:34:33;1;1;
79117;PMS7003;68523;51.336;-0.846;2023-03-21T05:39:36;1;1;
79117;PMS7003;68523;51.336;-0.846;2023-03-21T05:45:05;5;4;
79117;PMS7003;68523;51.336;-0.846;2023-03-21T05:50:35;2;2;
79117;PMS7003;68523;51.336;-0.846;2023-03-21T05:56:01;1;1;
79117;PMS7003;68523;51.336;-0.846;2023-03-21T06:01:04;1;0;
79117;PMS7003;68523;51.336;-0.846;2023-03-21T06:06:34;5;2;
79117;PMS7003;68523;51.336;-0.846;2023-03-21T06:11:37;2;1;
79117;PMS7003;68523;51.336;-0.846;2023-03-21T06:17:03;1;1;
79117;PMS7003;68523;51.336;-0.846;2023-03-21T06:22:33;2;1;
79117;PMS7003;68523;51.336;-0.846;2023-03-21T06:27:36;2;2;
79117;PMS7003;68523;51.336;-0.846;2023-03-21T06:33:06;1;1;
79117;PMS7003;68523;51.336;-0.846;2023-03-21T06:38:34;1;1;
79117;PMS7003;68523;51.336;-0.846;2023-03-21T06:43:37;4;4;
79117;PMS7003;68523;51.336;-0.846;2023-03-21T06:49:01;4;4;
79117;PMS7003;68523;51.336;-0.846;2023-03-21T06:54:04;7;3;
79117;PMS7003;68523;51.336;-0.846;2023-03-21T06:59:33;2;2;
79117;PMS7003;68523;51.336;-0.846;2023-03-21T07:04:36;3;3;
79117;PMS7003;68523;51.336;-0.846;2023-03-21T07:10:06;2;2;
79117;PMS7003;68523;51.336;-0.846;2023-03-21T07:15:36;3;3;
79117;PMS7003;68523;51.336;-0.846;2023-03-21T07:21:00;2;2;
79117;PMS7003;68523;51.336;-0.846;2023-03-21T07:26:04;6;6;
79117;PMS7003;68523;51.336;-0.846;2023-03-21T07:31:34;5;4;
79117;PMS7003;68523;51.336;-0.846;2023-03-21T07:36:37;6;6;
79117;PMS7003;68523;51.336;-0.846;2023-03-21T07:42:00;8;6;
79117;PMS7003;68523;51.336;-0.846;2023-03-21T07:47:04;7;5;
79117;PMS7003;68523;51.336;-0.846;2023-03-21T07:52:33;7;5;
79117;PMS7003;68523;51.336;-0.846;2023-03-21T07:57:36;5;5;
79117;PMS7003;68523;51.336;-0.846;2023-03-21T08:03:05;4;4;
79117;PMS7003;68523;51.336;-0.846;2023-03-21T08:08:35;6;4;
79117;PMS7003;68523;51.336;-0.846;2023-03-21T08:14:04;9;3;
79117;PMS7003;68523;51.336;-0.846;2023-03-21T08:19:34;2;2;
79117;PMS7003;68523;51.336;-0.846;2023-03-21T08:24:37;1;1;
79117;PMS7003;68523;51.336;-0.846;2023-03-21T08:30:01;4;1;
79117;PMS7003;68523;51.336;-0.846;2023-03-21T08:35:05;2;2;
79117;PMS7003;68523;51.336;-0.846;2023-03-21T08:40:36;0;0;
79117;PMS7003;68523;51.336;-0.846;2023-03-21T08:46:06;4;3;
79117;PMS7003;68523;51.336;-0.846;2023-03-21T08:51:35;7;1;
79117;PMS7003;68523;51.336;-0.846;2023-03-21T08:57:04;1;1;
79117;PMS7003;68523;51.336;-0.846;2023-03-21T09:02:33;0;0;
79117;PMS7003;68523;51.336;-0.846;2023-03-21T09:07:36;5;0;
79117;PMS7003;68523;51.336;-0.846;2023-03-21T09:13:01;1;1;
79117;PMS7003;68523;51.336;-0.846;2023-03-21T09:18:04;5;0;
79117;PMS7003;68523;51.336;-0.846;2023-03-21T09:23:33;1;1;
79117;PMS7003;68523;51.336;-0.846;2023-03-21T09:28:36;3;1;
79117;PMS7003;68523;51.336;-0.846;2023-03-21T09:34:05;0;0;
79117;PMS7003;68523;51.336;-0.846;2023-03-21T09:39:35;1;1;
79117;PMS7003;68523;51.336;-0.846;2023-03-21T09:45:06;1;1;
79117;PMS7003;68523;51.336;-0.846;2023-03-21T09:50:33;1;0;
79117;PMS7003;68523;51.336;-0.846;2023-03-21T09:56:04;0;0;
79117;PMS7003;68523;51.336;-0.846;2023-03-21T10:01:06;1;1;
79117;PMS7003;68523;51.336;-0.846;2023-03-21T10:06:34;3;0;
79117;PMS7003;68523;51.336;-0.846;2023-03-21T10:11:37;2;0;
79117;PMS7003;68523;51.336;-0.846;2023-03-21T10:17:01;0;0;
79117;PMS7003;68523;51.336;-0.846;2023-03-21T10:22:01;1;1;
79117;PMS7003;68523;51.336;-0.846;2023-03-21T10:27:04;1;1;
79117;PMS7003;68523;51.336;-0.846;2023-03-21T10:32:34;1;0;
79117;PMS7003;68523;51.336;-0.846;2023-03-21T10:37:37;2;1;
79117;PMS7003;68523;51.336;-0.846;2023-03-21T10:48:02;1;1;
79117;PMS7003;68523;51.336;-0.846;2023-03-21T10:53:05;0;0;
79117;PMS7003;68523;51.336;-0.846;2023-03-21T10:58:33;1;1;
79117;PMS7003;68523;51.336;-0.846;2023-03-21T11:03:35;4;2;
79117;PMS7003;68523;51.336;-0.846;2023-03-21T11:08:38;0;0;
79117;PMS7003;68523;51.336;-0.846;2023-03-21T11:13:37;0;0;
79117;PMS7003;68523;51.336;-0.846;2023-03-21T11:18:39;0;0;
79117;PMS7003;68523;51.336;-0.846;2023-03-21T11:24:05;2;0;
79117;PMS7003;68523;51.336;-0.846;2023-03-21T11:29:36;4;1;
79117;PMS7003;68523;51.336;-0.846;2023-03-21T11:35:03;2;0;
79117;PMS7003;68523;51.336;-0.846;2023-03-21T11:40:06;0;0;
79117;PMS7003;68523;51.336;-0.846;2023-03-21T11:45:33;2;0;
79117;PMS7003;68523;51.336;-0.846;2023-03-21T11:50:38;6;0;
79117;PMS7003;68523;51.336;-0.846;2023-03-21T11:56:10;2;0;
79117;PMS7003;68523;51.336;-0.846;2023-03-21T12:01:07;1;1;
79117;PMS7003;68523;51.336;-0.846;2023-03-21T12:06:34;1;1;
79117;PMS7003;68523;51.336;-0.846;2023-03-21T12:11:34;2;1;
79117;PMS7003;68523;51.336;-0.846;2023-03-21T12:16:39;0;0;
79117;PMS7003;68523;51.336;-0.846;2023-03-21T12:22:06;0;0;
79117;PMS7003;68523;51.336;-0.846;2023-03-21T12:27:35;0;0;
79117;PMS7003;68523;51.336;-0.846;2023-03-21T12:32:40;0;0;
79117;PMS7003;68523;51.336;-0.846;2023-03-21T12:38:09;1;0;
79117;PMS7003;68523;51.336;-0.846;2023-03-21T12:43:36;0;0;
79117;PMS7003;68523;51.336;-0.846;2023-03-21T12:48:37;1;1;
79117;PMS7003;68523;51.336;-0.846;2023-03-21T12:54:07;3;0;
79117;PMS7003;68523;51.336;-0.846;2023-03-21T12:59:33;0;0;
79117;PMS7003;68523;51.336;-0.846;2023-03-21T13:04:38;1;1;
79117;PMS7003;68523;51.336;-0.846;2023-03-21T13:09:35;1;1;
79117;PMS7003;68523;51.336;-0.846;2023-03-21T13:15:10;1;1;
79117;PMS7003;68523;51.336;-0.846;2023-03-21T13:20:34;0;0;
79117;PMS7003;68523;51.336;-0.846;2023-03-21T13:26:07;4;1;
79117;PMS7003;68523;51.336;-0.846;2023-03-21T13:31:32;0;0;
79117;PMS7003;68523;51.336;-0.846;2023-03-21T13:36:35;2;0;
79117;PMS7003;68523;51.336;-0.846;2023-03-21T13:42:04;2;0;
79117;PMS7003;68523;51.336;-0.846;2023-03-21T13:47:36;2;2;
79117;PMS7003;68523;51.336;-0.846;2023-03-21T13:52:36;0;0;
79117;PMS7003;68523;51.336;-0.846;2023-03-21T14:03:36;0;0;
79117;PMS7003;68523;51.336;-0.846;2023-03-21T14:09:01;1;1;
79117;PMS7003;68523;51.336;-0.846;2023-03-21T14:14:04;2;1;
79117;PMS7003;68523;51.336;-0.846;2023-03-21T14:19:34;3;0;
79117;PMS7003;68523;51.336;-0.846;2023-03-21T14:25:06;4;0;
79117;PMS7003;68523;51.336;-0.846;2023-03-21T14:30:35;0;0;
79117;PMS7003;68523;51.336;-0.846;2023-03-21T14:35:34;5;2;
79117;PMS7003;68523;51.336;-0.846;2023-03-21T14:41:05;0;0;
79117;PMS7003;68523;51.336;-0.846;2023-03-21T14:46:34;0;0;
79117;PMS7003;68523;51.336;-0.846;2023-03-21T14:51:36;1;1;
79117;PMS7003;68523;51.336;-0.846;2023-03-21T14:57:02;0;0;
79117;PMS7003;68523;51.336;-0.846;2023-03-21T15:02:04;4;1;
79117;PMS7003;68523;51.336;-0.846;2023-03-21T15:07:33;1;1;
79117;PMS7003;68523;51.336;-0.846;2023-03-21T15:12:36;0;0;
79117;PMS7003;68523;51.336;-0.846;2023-03-21T15:18:06;0;0;
79117;PMS7003;68523;51.336;-0.846;2023-03-21T15:23:34;0;0;
79117;PMS7003;68523;51.336;-0.846;2023-03-21T15:28:35;1;0;
79117;PMS7003;68523;51.336;-0.846;2023-03-21T15:34:05;1;1;
79117;PMS7003;68523;51.336;-0.846;2023-03-21T15:39:34;1;1;
79117;PMS7003;68523;51.336;-0.846;2023-03-21T15:44:36;1;1;
79117;PMS7003;68523;51.336;-0.846;2023-03-21T15:50:07;1;1;
79117;PMS7003;68523;51.336;-0.846;2023-03-21T15:55:37;0;0;
79117;PMS7003;68523;51.336;-0.846;2023-03-21T16:00:36;0;0;
79117;PMS7003;68523;51.336;-0.846;2023-03-21T16:05:34;0;0;
79117;PMS7003;68523;51.336;-0.846;2023-03-21T16:10:37;0;0;
79117;PMS7003;68523;51.336;-0.846;2023-03-21T16:16:01;1;1;
79117;PMS7003;68523;51.336;-0.846;2023-03-21T16:21:04;0;0;
79117;PMS7003;68523;51.336;-0.846;2023-03-21T16:26:34;0;0;
79117;PMS7003;68523;51.336;-0.846;2023-03-21T16:32:05;2;2;
79117;PMS7003;68523;51.336;-0.846;2023-03-21T16:37:34;4;0;
79117;PMS7003;68523;51.336;-0.846;2023-03-21T16:42:36;5;1;
79117;PMS7003;68523;51.336;-0.846;2023-03-21T16:48:00;2;1;
79117;PMS7003;68523;51.336;-0.846;2023-03-21T16:53:03;0;0;
79117;PMS7003;68523;51.336;-0.846;2023-03-21T16:58:33;0;0;
79117;PMS7003;68523;51.336;-0.846;2023-03-21T17:03:36;0;0;
79117;PMS7003;68523;51.336;-0.846;2023-03-21T17:09:05;0;0;
79117;PMS7003;68523;51.336;-0.846;2023-03-21T17:14:34;3;0;
79117;PMS7003;68523;51.336;-0.846;2023-03-21T17:19:36;2;0;
79117;PMS7003;68523;51.336;-0.846;2023-03-21T17:25:01;0;0;
79117;PMS7003;68523;51.336;-0.846;2023-03-21T17:30:08;0;0;
79117;PMS7003;68523;51.336;-0.846;2023-03-21T17:35:35;1;1;
79117;PMS7003;68523;51.336;-0.846;2023-03-21T17:40:37;2;2;
79117;PMS7003;68523;51.336;-0.846;2023-03-21T17:46:01;0;0;
79117;PMS7003;68523;51.336;-0.846;2023-03-21T17:51:04;12;4;
79117;PMS7003;68523;51.336;-0.846;2023-03-21T17:56:34;4;2;
79117;PMS7003;68523;51.336;-0.846;2023-03-21T18:01:36;1;1;
79117;PMS7003;68523;51.336;-0.846;2023-03-21T18:07:00;0;0;
79117;PMS7003;68523;51.336;-0.846;2023-03-21T18:12:03;1;1;
79117;PMS7003;68523;51.336;-0.846;2023-03-21T18:17:32;1;1;
79117;PMS7003;68523;51.336;-0.846;2023-03-21T18:22:35;1;1;
79117;PMS7003;68523;51.336;-0.846;2023-03-21T18:28:04;0;0;
79117;PMS7003;68523;51.336;-0.846;2023-03-21T18:33:33;1;1;
79117;PMS7003;68523;51.336;-0.846;2023-03-21T18:38:36;0;0;
79117;PMS7003;68523;51.336;-0.846;2023-03-21T18:44:00;1;0;
79117;PMS7003;68523;51.336;-0.846;2023-03-21T18:49:03;1;1;
79117;PMS7003;68523;51.336;-0.846;2023-03-21T18:54:32;9;0;
79117;PMS7003;68523;51.336;-0.846;2023-03-21T18:59:35;0;0;
79117;PMS7003;68523;51.336;-0.846;2023-03-21T19:05:04;0;0;
79117;PMS7003;68523;51.336;-0.846;2023-03-21T19:10:34;2;2;
79117;PMS7003;68523;51.336;-0.846;2023-03-21T19:15:37;0;0;
79117;PMS7003;68523;51.336;-0.846;2023-03-21T19:21:01;3;0;
79117;PMS7003;68523;51.336;-0.846;2023-03-21T19:26:03;6;1;
79117;PMS7003;68523;51.336;-0.846;2023-03-21T19:31:32;5;4;
79117;PMS7003;68523;51.336;-0.846;2023-03-21T19:36:35;1;0;
79117;PMS7003;68523;51.336;-0.846;2023-03-21T19:42:04;0;0;
79117;PMS7003;68523;51.336;-0.846;2023-03-21T19:47:33;4;1;
79117;PMS7003;68523;51.336;-0.846;2023-03-21T19:52:35;1;1;
79117;PMS7003;68523;51.336;-0.846;2023-03-21T19:58:04;3;1;
79117;PMS7003;68523;51.336;-0.846;2023-03-21T20:03:33;4;2;
79117;PMS7003;68523;51.336;-0.846;2023-03-21T20:08:36;1;1;
79117;PMS7003;68523;51.336;-0.846;2023-03-21T20:14:00;0;0;
79117;PMS7003;68523;51.336;-0.846;2023-03-21T20:19:03;1;1;
79117;PMS7003;68523;51.336;-0.846;2023-03-21T20:24:33;2;2;
79117;PMS7003;68523;51.336;-0.846;2023-03-21T20:29:36;0;0;
79117;PMS7003;68523;51.336;-0.846;2023-03-21T20:35:01;2;0;
79117;PMS7003;68523;51.336;-0.846;2023-03-21T20:40:04;4;2;
79117;PMS7003;68523;51.336;-0.846;2023-03-21T20:45:34;0;0;
79117;PMS7003;68523;51.336;-0.846;2023-03-21T20:50:37;5;3;
79117;PMS7003;68523;51.336;-0.846;2023-03-21T20:56:01;0;0;
79117;PMS7003;68523;51.336;-0.846;2023-03-21T21:01:05;1;0;
79117;PMS7003;68523;51.336;-0.846;2023-03-21T21:06:34;0;0;
79117;PMS7003;68523;51.336;-0.846;2023-03-21T21:12:04;0;0;
79117;PMS7003;68523;51.336;-0.846;2023-03-21T21:17:33;0;0;
79117;PMS7003;68523;51.336;-0.846;2023-03-21T21:22:36;3;1;
79117;PMS7003;68523;51.336;-0.846;2023-03-21T21:28:05;0;0;
79117;PMS7003;68523;51.336;-0.846;2023-03-21T21:33:34;3;0;
79117;PMS7003;68523;51.336;-0.846;2023-03-21T21:38:37;8;0;
79117;PMS7003;68523;51.336;-0.846;2023-03-21T21:44:01;0;0;
79117;PMS7003;68523;51.336;-0.846;2023-03-21T21:49:04;0;0;
79117;PMS7003;68523;51.336;-0.846;2023-03-21T21:54:33;0;0;
79117;PMS7003;68523;51.336;-0.846;2023-03-21T21:59:36;3;0;
79117;PMS7003;68523;51.336;-0.846;2023-03-21T22:05:05;0;0;
79117;PMS7003;68523;51.336;-0.846;2023-03-21T22:10:35;5;0;
79117;PMS7003;68523;51.336;-0.846;2023-03-21T22:16:04;7;1;
79117;PMS7003;68523;51.336;-0.846;2023-03-21T22:21:33;8;1;
79117;PMS7003;68523;51.336;-0.846;2023-03-21T22:26:36;1;1;
79117;PMS7003;68523;51.336;-0.846;2023-03-21T22:32:05;0;0;
79117;PMS7003;68523;51.336;-0.846;2023-03-21T22:37:34;8;2;
79117;PMS7003;68523;51.336;-0.846;2023-03-21T22:43:04;1;0;
79117;PMS7003;68523;51.336;-0.846;2023-03-21T22:48:33;4;1;
79117;PMS7003;68523;51.336;-0.846;2023-03-21T22:53:36;6;1;
79117;PMS7003;68523;51.336;-0.846;2023-03-21T22:59:05;0;0;
79117;PMS7003;68523;51.336;-0.846;2023-03-21T23:04:34;0;0;
79117;PMS7003;68523;51.336;-0.846;2023-03-21T23:09:37;1;1;
79117;PMS7003;68523;51.336;-0.846;2023-03-21T23:15:01;2;0;
79117;PMS7003;68523;51.336;-0.846;2023-03-21T23:20:04;4;0;
79117;PMS7003;68523;51.336;-0.846;2023-03-21T23:25:34;1;1;
79117;PMS7003;68523;51.336;-0.846;2023-03-21T23:30:36;2;2;
79117;PMS7003;68523;51.336;-0.846;2023-03-21T23:36:05;2;0;
79117;PMS7003;68523;51.336;-0.846;2023-03-21T23:41:36;0;0;
79117;PMS7003;68523;51.336;-0.846;2023-03-21T23:47:05;0;0;
79117;PMS7003;68523;51.336;-0.846;2023-03-21T23:52:34;1;1;
79117;PMS7003;68523;51.336;-0.846;2023-03-21T23:57:37;0;0;
